Bo Bo, Indiana
Current Conditions -  °F | °C
As of 9:54 PM on Friday 19 Dec 2014 (Local Time) from KFWA Reporting Station
Overcast Overcast  
Wind Chill: 29°   Ceiling: 2900
Heat Index: 29°   Visibility: 10mi
Dew Point: 24°   Wind: 3mph
Humidity: 82%   Direction: 90°E
Pressure: 30.28"   Gusts: NA
Location:  40.8317°N, 84.9398°W
Report Text: KFWA 200254Z 09003KT 10SM BKN029 OVC035 M02/M04 A3028 RMK AO2 SLP264 T10171044 56006
Loading
Personal Weather Stations






























Interactive Weather Map New forecast layout! Learn more

10-Day Weather Forecast

Advertisements
Track Severe Weather on mobile